Pagina principale
METAR-TAF:

METAR-TAF

Aeroporti :

Aeroporto di Majuro

Majuro, Isole Marshall

latitudine: 07-04N, longitudine: 171-17E, altezza: 2 m

Osservazione

Il bollettino è stato emesso 43 minuti fa, alle 22:58 UTC
Vento 3 kt da direzioni variabili
Temperature 31°C
Umidità 71%
Pressione 1010 hPa
Visibilità: 24.1 km
Poco nuvoloso ad un'altezza di 1500 ft
Nubi sparse ad un'altezza di 5000 ft
Nuvoloso ad un'altezza di 30000 ft

METAR: PKMJ 152258Z VRB03KT 15SM FEW015 SCT050 BKN300 31/25 A2983

Ora: 11:41 (23:41 UTC)

Previsione

Il bollettino è stato emesso 6 ore e 9 minuti fa, alle 17:32 UTC
Previsione valida dal 15 alle 18 UTC al 16 alle 18 UTC
Vento 6 kt da est
Visibilità: 10 km
Poco nuvoloso ad un'altezza di 1500 ft
Nubi sparse ad un'altezza di 5000 ft
rovesci nelle vicinanze

TAF: PKMJ 151732Z 1518/1618 09006KT P6SM VCSH FEW015 SCT050

Osservazioni e previsioni meteorologiche di più di 4000 aeroporti (messaggi METAR e TAF).

Le stazioni disponibili sono rappresentate dai dischi gialli e rossi sulla carta.

Puntare il mouse per vedere il nome della stazione.

Clicca sopra per visualizzare le osservazioni e previsioni meteorologiche.

Per cambiare la mappa : fare clic sui pulsanti verdi con una croce nera per ingrandire, il pulsante verde con un trattino per diminuire, o sulla freccia verde per le mappe adiacenti.


METAR-TAF: